Startpagina
METAR-TAF:

METAR-TAF

Vliegvelden :

Stanley, Falklandeilanden

breedte: 51-49S, lengte: 058-27W, hoogte: 74 m

Actueel weer

Dit bericht is 25 minuten geleden gemaakt, om 01:50 UTC
Wind 8 kt uit het westzuidwesten
Temperatuur 2°C
Vochtigheid 93%
Druk 1034 hPa
Zicht 10 km of meer
Gebroken wolken op 900 ft

METAR: EGYP 190150Z 24008KT 9999 BKN009 02/01 Q1034 GRN

Tijdstip: 23:15 (02:15 UTC)

Verwachting

Dit bericht is 3 uur en het 49 minuten geleden gemaakt, om 22:26 UTC
Verwachting geldig van 19 om 00 UTC tot 19 om 18 UTC
Wind 12 kt uit het westzuidwesten
Zicht 10 km of meer
Gebroken wolken op 1400 ft
Kans 40% :
Tijdelijke
van 19 om 00 UTC tot 19 om 18 UTC
Zicht: 3000 m
Gebroken wolken op 400 ft
lichte motregen
Kans 30% :
Tijdelijke
van 19 om 00 UTC tot 19 om 18 UTC
Zicht: 1000 m
Gebroken wolken op 200 ft
motregen

TAF: EGYP 182226Z 1900/1918 25012KT 9999 BKN014 PROB40 TEMPO 1900/1918 3000 -DZ BKN004 PROB30 TEMPO 1900/1918 1000 DZ BKN002

Waarnemingen en weersverwachtingen van meer dan 4000 vliegvelden (METAR en TAF).

De beschikbare stations zijn de gele en rode punten op de kaart.

Ga met uw muis naar het station om de naam te zien.

Klik dan om waarnemingen en weersverwachtingen te zien.

kaart wijzigen: klik op de groene knoppen met een zwart kruis om in te zoomen, op de groene knop met een streepje om uit te zoomen of op de groene pijlen voor aangrenzende kaarten.


METAR-TAF: